Time;durP1;ratioP1;P1;durP2;ratioP2;P2;SDS_P1;SDS_P2;PMS_P1;PMS_P2;Temp;Humidity;BMP_temperature;BMP_pressure;BME280_temperature;BME280_humidity;BME280_pressure;Samples;Min_cycle;Max_cycle;Signal;HPM_P1;HPM_P2
2022/06/01 00:01:29;;;;;;;1.08;0.60;;;11.90;80.70;;;;;;6240850;22;19997;-67
2022/06/01 00:03:56;;;;;;;1.08;0.40;;;11.90;80.40;;;;;;6241954;23;20019;-67
2022/06/01 00:06:24;;;;;;;3.95;0.73;;;11.90;79.30;;;;;;6241316;22;20016;-71
2022/06/01 00:08:51;;;;;;;0.95;0.60;;;12.00;79.40;;;;;;6241550;22;20075;-72
2022/06/01 00:11:19;;;;;;;1.38;0.60;;;12.00;78.90;;;;;;6241771;22;20000;-71
2022/06/01 00:13:47;;;;;;;4.78;0.70;;;12.00;79.70;;;;;;6239323;23;20346;-70
2022/06/01 00:16:17;;;;;;;0.98;0.47;;;12.10;80.00;;;;;;6241007;22;19997;-73
2022/06/01 00:18:44;;;;;;;0.43;0.40;;;12.10;79.30;;;;;;6241568;22;20350;-70
2022/06/01 00:21:12;;;;;;;2.92;0.50;;;12.20;79.20;;;;;;6241705;22;20422;-71
2022/06/01 00:23:40;;;;;;;1.42;0.43;;;12.20;77.70;;;;;;6241159;22;20016;-73
2022/06/01 00:26:07;;;;;;;1.05;0.45;;;12.20;77.70;;;;;;6240830;22;20006;-72
2022/06/01 00:28:35;;;;;;;6.22;0.95;;;12.30;78.80;;;;;;6241117;22;20008;-71
2022/06/01 00:31:03;;;;;;;1.45;0.50;;;12.30;77.60;;;;;;6240244;22;20425;-73
2022/06/01 00:33:31;;;;;;;0.73;0.45;;;12.40;77.40;;;;;;6241449;22;20434;-67
2022/06/01 00:35:58;;;;;;;1.75;0.35;;;12.40;76.90;;;;;;6241201;22;20004;-66
2022/06/01 00:38:26;;;;;;;5.15;0.50;;;12.50;77.70;;;;;;6240635;22;20104;-73
2022/06/01 00:40:53;;;;;;;0.40;0.40;;;12.40;77.50;;;;;;6239402;23;20363;-68
2022/06/01 00:43:44;;;;;;;0.73;0.40;;;12.50;76.90;;;;;;6241462;22;20008;-65
2022/06/01 00:46:13;;;;;;;1.42;0.60;;;12.50;77.10;;;;;;6241430;22;20028;-67
2022/06/01 00:48:46;;;;;;;2.90;0.40;;;12.50;77.40;;;;;;6241596;22;20012;-65
2022/06/01 00:51:15;;;;;;;1.40;0.40;;;12.60;76.80;;;;;;6241493;23;20003;-66
2022/06/01 00:53:44;;;;;;;1.60;0.60;;;12.60;77.80;;;;;;6241809;22;20007;-70
2022/06/01 00:56:17;;;;;;;0.60;0.40;;;12.70;77.30;;;;;;6242096;22;20038;-67
2022/06/01 00:58:48;;;;;;;0.47;0.30;;;12.70;77.00;;;;;;6242569;22;19997;-72
2022/06/01 01:01:19;;;;;;;0.97;0.40;;;12.80;75.60;;;;;;6242598;22;20075;-68
2022/06/01 01:03:49;;;;;;;1.15;0.50;;;12.90;76.40;;;;;;6241797;22;20016;-70
2022/06/01 01:06:24;;;;;;;3.83;0.40;;;12.90;75.60;;;;;;6240530;22;20000;-70
2022/06/01 01:08:52;;;;;;;2.47;0.65;;;12.90;75.40;;;;;;6241532;22;20008;-71
2022/06/01 01:11:42;;;;;;;1.88;0.60;;;13.00;75.40;;;;;;6240637;23;20016;-68
2022/06/01 01:14:11;;;;;;;1.25;0.60;;;13.10;75.40;;;;;;6219037;23;20011;-68
2022/06/01 01:16:39;;;;;;;0.75;0.60;;;13.20;75.60;;;;;;6241827;22;20359;-71
2022/06/01 01:19:32;;;;;;;1.85;0.50;;;13.30;74.30;;;;;;6242072;22;20003;-70
2022/06/01 01:22:10;;;;;;;3.70;0.50;;;13.30;73.80;;;;;;6241741;23;20339;-69
2022/06/01 01:24:52;;;;;;;0.80;0.50;;;13.30;74.00;;;;;;6241959;22;20016;-69
2022/06/01 01:27:19;;;;;;;1.92;0.65;;;13.40;73.00;;;;;;6214765;23;20050;-67
2022/06/01 01:29:47;;;;;;;0.38;0.38;;;13.50;74.00;;;;;;6241846;22;20001;-70
2022/06/01 01:32:15;;;;;;;1.95;0.60;;;13.50;73.40;;;;;;6242424;22;20000;-69
2022/06/01 01:34:44;;;;;;;0.75;0.50;;;13.60;71.90;;;;;;6239581;23;20424;-71
2022/06/01 01:37:25;;;;;;;0.40;0.40;;;13.60;70.70;;;;;;6242330;22;20008;-71
2022/06/01 01:39:55;;;;;;;1.38;0.45;;;13.60;71.40;;;;;;6242841;22;20083;-72
2022/06/01 01:42:22;;;;;;;5.10;1.50;;;13.70;71.40;;;;;;6240692;23;20000;-71
2022/06/01 01:45:25;;;;;;;0.50;0.50;;;13.70;71.00;;;;;;6240006;22;20008;-74
2022/06/01 01:47:53;;;;;;;1.30;0.60;;;13.80;69.80;;;;;;6239866;23;20442;-74
2022/06/01 01:50:21;;;;;;;1.20;0.40;;;13.90;69.20;;;;;;6240974;22;20000;-72
2022/06/01 01:52:49;;;;;;;3.55;0.57;;;14.00;69.20;;;;;;6241440;22;20006;-71
2022/06/01 01:55:49;;;;;;;0.85;0.40;;;13.90;69.20;;;;;;6242415;22;20006;-70
2022/06/01 01:58:55;;;;;;;3.60;0.60;;;14.00;68.40;;;;;;6242160;22;20307;-71
2022/06/01 02:01:41;;;;;;;3.03;0.77;;;14.10;69.30;;;;;;6238135;23;20027;-75
2022/06/01 02:07:09;;;;;;;3.22;0.50;;;14.30;69.00;;;;;;6240323;23;20050;-70
2022/06/01 02:12:41;;;;;;;3.03;0.50;;;14.40;68.70;;;;;;6241275;23;20062;-69
2022/06/01 02:15:20;;;;;;;2.03;1.25;;;14.40;69.80;;;;;;6242647;22;20000;-70
2022/06/01 02:17:53;;;;;;;0.95;0.50;;;14.50;70.20;;;;;;6242841;22;20079;-70
2022/06/01 02:20:26;;;;;;;;;;;14.60;69.90;;;;;;6245269;22;20422;-68
2022/06/01 02:22:54;;;;;;;2.08;1.17;;;14.60;69.40;;;;;;6218857;23;19908;-71
2022/06/01 02:25:21;;;;;;;0.95;0.52;;;14.60;69.20;;;;;;6242940;22;20334;-73
2022/06/01 02:27:51;;;;;;;1.98;0.55;;;14.50;68.30;;;;;;6244897;22;20681;-72
2022/06/01 02:30:39;;;;;;;2.30;0.70;;;14.60;68.80;;;;;;6242937;23;20346;-67
2022/06/01 02:33:10;;;;;;;1.38;0.40;;;14.70;67.70;;;;;;6244038;22;20053;-69
2022/06/01 02:35:42;;;;;;;1.60;0.50;;;14.70;67.80;;;;;;6243369;22;20126;-70
2022/06/01 02:38:17;;;;;;;2.13;0.65;;;14.70;67.60;;;;;;6242855;22;19996;-70
2022/06/01 02:40:44;;;;;;;0.90;0.52;;;14.80;69.20;;;;;;6243142;22;20087;-70
2022/06/01 02:43:13;;;;;;;3.60;1.10;;;15.00;68.00;;;;;;6241783;22;20016;-77
2022/06/01 02:45:40;;;;;;;5.57;0.60;;;15.30;67.00;;;;;;6242639;22;20103;-68
2022/06/01 02:48:08;;;;;;;2.78;0.80;;;15.30;66.50;;;;;;6242827;22;20011;-75
2022/06/01 02:50:36;;;;;;;1.33;0.65;;;15.30;66.40;;;;;;6243335;22;20005;-73
2022/06/01 02:53:05;;;;;;;3.40;0.80;;;15.20;65.80;;;;;;6241570;23;20008;-73
2022/06/01 02:55:34;;;;;;;1.65;0.50;;;15.20;66.60;;;;;;6243726;22;20011;-75
2022/06/01 02:58:02;;;;;;;2.60;0.60;;;14.90;68.20;;;;;;6243992;22;20004;-72
2022/06/01 03:00:37;;;;;;;0.82;0.47;;;14.70;68.50;;;;;;6243270;22;20004;-72
2022/06/01 03:03:06;;;;;;;0.65;0.40;;;14.70;69.10;;;;;;6239406;23;20030;-69
2022/06/01 03:05:37;;;;;;;1.15;0.52;;;14.70;69.00;;;;;;6242669;22;20035;-71
2022/06/01 03:08:05;;;;;;;2.00;0.52;;;14.90;68.20;;;;;;6243438;22;20000;-71
2022/06/01 03:10:33;;;;;;;0.80;0.50;;;15.20;67.20;;;;;;6243359;22;20084;-67
2022/06/01 03:13:00;;;;;;;0.40;0.40;;;15.20;67.00;;;;;;6242837;22;20079;-67
2022/06/01 03:15:28;;;;;;;3.28;0.85;;;15.60;66.90;;;;;;6243559;22;20008;-70
2022/06/01 03:17:55;;;;;;;2.22;0.52;;;15.90;66.10;;;;;;6243136;22;19996;-67
2022/06/01 03:20:24;;;;;;;1.85;0.70;;;16.20;65.70;;;;;;6243132;22;20004;-66
2022/06/01 03:22:52;;;;;;;1.63;0.50;;;16.40;64.40;;;;;;6242857;22;20004;-63
2022/06/01 03:25:25;;;;;;;2.80;0.60;;;16.40;64.40;;;;;;6238887;22;20091;-67
2022/06/01 03:27:55;;;;;;;2.38;0.57;;;16.50;63.80;;;;;;6244099;22;20077;-65
2022/06/01 03:30:22;;;;;;;1.05;0.30;;;16.80;64.20;;;;;;6243805;22;20007;-66
2022/06/01 03:32:50;;;;;;;2.17;0.93;;;17.20;62.80;;;;;;6243151;22;20007;-66
2022/06/01 03:35:22;;;;;;;1.80;0.40;;;17.50;62.40;;;;;;6243928;22;20027;-66
2022/06/01 03:37:50;;;;;;;2.17;0.50;;;17.80;61.00;;;;;;6243282;22;19996;-67
2022/06/01 03:40:19;;;;;;;2.05;0.60;;;17.90;61.20;;;;;;6243797;22;20008;-68
2022/06/01 03:42:47;;;;;;;1.25;0.40;;;18.20;60.40;;;;;;6244508;22;20004;-68
2022/06/01 03:48:02;;;;;;;5.05;0.50;;;18.80;60.00;;;;;;6243680;23;20007;-67
2022/06/01 03:50:30;;;;;;;1.95;0.52;;;19.20;59.50;;;;;;6243421;22;20013;-67
2022/06/01 03:52:58;;;;;;;0.82;0.35;;;19.30;58.50;;;;;;6242949;22;20012;-66
2022/06/01 03:55:26;;;;;;;3.63;0.60;;;19.20;58.20;;;;;;6241600;23;20011;-66
2022/06/01 03:57:54;;;;;;;2.85;0.43;;;19.00;58.30;;;;;;6225201;22;20328;-70
2022/06/01 04:00:23;;;;;;;1.38;0.40;;;18.90;58.00;;;;;;6240379;22;20087;-74
2022/06/01 04:02:51;;;;;;;1.08;0.47;;;18.60;58.80;;;;;;6241737;22;20455;-73
2022/06/01 04:05:21;;;;;;;0.85;0.45;;;18.40;59.60;;;;;;6243204;22;20012;-73
2022/06/01 04:07:49;;;;;;;1.70;0.50;;;18.20;59.10;;;;;;6243217;22;20074;-73
2022/06/01 04:10:17;;;;;;;3.38;0.65;;;17.70;60.00;;;;;;6242261;22;20004;-67
2022/06/01 04:12:44;;;;;;;1.10;0.63;;;17.00;61.10;;;;;;6241469;22;19996;-67
2022/06/01 04:15:12;;;;;;;2.50;0.40;;;16.30;62.50;;;;;;6242424;22;20465;-67
2022/06/01 04:17:39;;;;;;;1.25;0.50;;;15.90;63.60;;;;;;6242441;22;20063;-71
2022/06/01 04:20:08;;;;;;;2.45;0.45;;;15.60;65.30;;;;;;6242153;22;19996;-70
2022/06/01 04:22:38;;;;;;;2.13;0.45;;;15.40;65.30;;;;;;6241009;22;20008;-68
2022/06/01 04:25:06;;;;;;;0.98;0.47;;;15.30;65.60;;;;;;6241024;22;20023;-70
2022/06/01 04:27:33;;;;;;;2.75;0.50;;;15.20;66.80;;;;;;6240488;23;20050;-66
2022/06/01 04:30:01;;;;;;;1.50;0.40;;;15.10;66.80;;;;;;6242677;22;20008;-67
2022/06/01 04:32:33;;;;;;;2.10;0.70;;;15.10;67.60;;;;;;6243115;22;20004;-69
2022/06/01 04:35:01;;;;;;;1.17;0.47;;;15.00;67.40;;;;;;6242627;22;20404;-74
2022/06/01 04:37:29;;;;;;;1.75;0.73;;;15.00;67.90;;;;;;6243112;22;20028;-70
2022/06/01 04:39:57;;;;;;;0.77;0.40;;;14.90;68.50;;;;;;6243751;22;20011;-68
2022/06/01 04:42:25;;;;;;;1.67;0.50;;;14.90;68.60;;;;;;6242828;22;20061;-70
2022/06/01 04:44:52;;;;;;;2.95;0.60;;;14.90;69.30;;;;;;6242379;22;20032;-72
2022/06/01 04:47:21;;;;;;;2.22;0.60;;;14.90;69.00;;;;;;6243656;22;20000;-71
2022/06/01 04:49:48;;;;;;;3.15;0.80;;;14.90;69.90;;;;;;6242786;22;20001;-74
2022/06/01 04:52:16;;;;;;;3.15;0.80;;;14.90;68.10;;;;;;6243089;22;20000;-76
2022/06/01 04:54:43;;;;;;;1.70;0.50;;;14.90;68.80;;;;;;6241557;22;20091;-67
2022/06/01 04:57:10;;;;;;;2.33;0.60;;;14.80;68.20;;;;;;6243006;22;20067;-70
2022/06/01 04:59:39;;;;;;;2.08;0.43;;;14.70;68.80;;;;;;6242181;22;20007;-72
2022/06/01 05:02:06;;;;;;;1.35;0.40;;;14.70;68.90;;;;;;6242708;22;20054;-70
2022/06/01 05:04:34;;;;;;;0.60;0.40;;;14.70;69.00;;;;;;6242563;22;20035;-68
2022/06/01 05:07:02;;;;;;;1.75;0.50;;;14.70;68.80;;;;;;6243460;22;20411;-67
2022/06/01 05:09:29;;;;;;;1.98;0.60;;;14.70;69.20;;;;;;6240245;23;20008;-66
2022/06/01 05:11:56;;;;;;;1.17;0.40;;;14.70;69.30;;;;;;6241930;22;20079;-69
2022/06/01 05:14:24;;;;;;;2.58;0.88;;;14.70;70.00;;;;;;6241945;22;20020;-68
2022/06/01 05:16:52;;;;;;;2.28;0.50;;;14.70;70.00;;;;;;6240876;22;20007;-68
2022/06/01 05:19:19;;;;;;;2.60;0.65;;;14.60;69.80;;;;;;6238255;23;20086;-67
2022/06/01 05:21:46;;;;;;;2.20;0.50;;;14.70;70.60;;;;;;6237909;22;20030;-67
2022/06/01 05:24:14;;;;;;;2.35;0.70;;;14.70;70.20;;;;;;6238605;22;20083;-68
2022/06/01 05:26:41;;;;;;;5.53;0.50;;;14.80;70.30;;;;;;6239815;22;20004;-67
2022/06/01 05:29:09;;;;;;;1.52;0.75;;;14.90;70.10;;;;;;6239324;22;20028;-69
2022/06/01 05:31:36;;;;;;;1.75;0.40;;;15.00;69.80;;;;;;6241194;22;20323;-67
2022/06/01 05:34:04;;;;;;;2.00;0.60;;;15.10;70.40;;;;;;6237461;22;20004;-67
2022/06/01 05:36:31;;;;;;;1.00;0.50;;;15.10;69.80;;;;;;6241224;22;20024;-69
2022/06/01 05:38:58;;;;;;;2.58;0.68;;;15.10;70.00;;;;;;6242444;23;20019;-70
2022/06/01 05:41:26;;;;;;;2.08;1.25;;;15.10;70.60;;;;;;6242366;22;20058;-68
2022/06/01 05:43:54;;;;;;;3.33;0.80;;;15.10;70.30;;;;;;6243571;22;20430;-67
2022/06/01 05:46:23;;;;;;;3.63;1.10;;;15.10;71.00;;;;;;6242516;22;20452;-67
2022/06/01 05:48:50;;;;;;;2.15;0.50;;;15.10;71.10;;;;;;6244634;22;20000;-67
2022/06/01 05:51:19;;;;;;;1.65;0.65;;;15.20;71.00;;;;;;6243640;22;19997;-66
2022/06/01 05:53:46;;;;;;;0.65;0.40;;;15.20;70.60;;;;;;6229391;22;20000;-69
2022/06/01 05:56:13;;;;;;;3.95;1.23;;;15.30;70.80;;;;;;6242343;23;20004;-70
2022/06/01 05:58:41;;;;;;;1.55;0.40;;;15.40;70.20;;;;;;6239514;22;20004;-68
2022/06/01 06:01:09;;;;;;;1.42;0.50;;;15.50;70.20;;;;;;6239838;22;20365;-68
2022/06/01 06:03:36;;;;;;;1.05;0.50;;;15.70;69.70;;;;;;6242699;23;20016;-68
2022/06/01 06:06:16;;;;;;;2.75;0.45;;;15.60;69.60;;;;;;6245022;22;20072;-68
2022/06/01 06:08:54;;;;;;;1.90;0.40;;;15.40;71.20;;;;;;6245181;22;20427;-70
2022/06/01 06:11:22;;;;;;;1.88;0.43;;;15.30;70.70;;;;;;6244794;22;20034;-72
2022/06/01 06:13:50;;;;;;;3.10;0.68;;;15.10;71.70;;;;;;6244933;22;20054;-68
2022/06/01 06:16:18;;;;;;;3.70;0.50;;;14.90;71.50;;;;;;6244417;22;20000;-68
2022/06/01 06:18:46;;;;;;;3.20;0.82;;;14.70;71.90;;;;;;6245948;22;20075;-68
2022/06/01 06:21:14;;;;;;;4.78;0.50;;;14.50;72.70;;;;;;6245729;22;20007;-68
2022/06/01 06:23:41;;;;;;;2.17;0.40;;;14.30;73.90;;;;;;6243836;22;20450;-67
2022/06/01 06:26:09;;;;;;;3.20;0.82;;;14.10;73.60;;;;;;6243282;22;20003;-72
2022/06/01 06:28:37;;;;;;;4.15;1.25;;;14.00;74.50;;;;;;6242126;22;20028;-66
2022/06/01 06:31:04;;;;;;;4.85;1.95;;;13.80;74.20;;;;;;6243767;22;19996;-67
2022/06/01 06:33:31;;;;;;;2.15;0.98;;;13.70;74.90;;;;;;6242405;22;20000;-66
2022/06/01 06:36:05;;;;;;;1.38;0.85;;;13.60;75.70;;;;;;6242170;22;20007;-72
2022/06/01 06:38:35;;;;;;;4.47;0.70;;;13.50;75.50;;;;;;6241424;22;20083;-67
2022/06/01 06:41:03;;;;;;;2.30;0.82;;;13.40;76.10;;;;;;6242833;22;19996;-67
2022/06/01 06:43:31;;;;;;;4.28;1.13;;;13.40;76.30;;;;;;6242823;22;20012;-72
2022/06/01 06:46:08;;;;;;;4.55;2.38;;;13.40;76.30;;;;;;6243439;22;20004;-70
2022/06/01 06:48:36;;;;;;;2.60;1.35;;;13.30;76.30;;;;;;6243381;22;20010;-69
2022/06/01 06:51:04;;;;;;;4.10;2.28;;;13.30;76.50;;;;;;6243748;22;20335;-69
2022/06/01 06:53:32;;;;;;;2.30;0.50;;;13.20;76.90;;;;;;6244015;22;20004;-70
2022/06/01 06:55:59;;;;;;;4.38;1.73;;;13.10;77.20;;;;;;6243971;22;20382;-67
2022/06/01 06:58:29;;;;;;;2.58;0.93;;;13.00;77.60;;;;;;6243378;22;20423;-68
2022/06/01 07:00:56;;;;;;;8.48;3.50;;;12.90;78.00;;;;;;6243336;22;20001;-66
2022/06/01 07:03:23;;;;;;;2.42;1.73;;;12.80;78.30;;;;;;6243595;22;20016;-69
2022/06/01 07:06:10;;;;;;;1.65;0.80;;;12.80;78.60;;;;;;6244588;22;20469;-69
2022/06/01 07:08:39;;;;;;;3.20;1.15;;;12.70;79.10;;;;;;6245440;22;20000;-68
2022/06/01 07:11:07;;;;;;;1.00;0.60;;;12.70;79.20;;;;;;6245593;22;20023;-66
2022/06/01 07:13:35;;;;;;;2.90;0.70;;;12.70;79.60;;;;;;6244612;22;20000;-67
2022/06/01 07:16:15;;;;;;;2.03;1.05;;;12.60;80.50;;;;;;6244580;22;19996;-68
2022/06/01 07:18:44;;;;;;;2.28;0.57;;;12.50;80.40;;;;;;6243502;22;20004;-67
2022/06/01 07:21:14;;;;;;;2.15;0.50;;;12.50;80.40;;;;;;6242087;22;20007;-67
2022/06/01 07:23:43;;;;;;;0.77;0.60;;;12.50;80.10;;;;;;6242955;22;20716;-67
2022/06/01 07:26:17;;;;;;;1.98;0.65;;;12.50;80.80;;;;;;6243966;22;20034;-66
2022/06/01 07:28:44;;;;;;;3.22;1.00;;;12.40;80.90;;;;;;6243748;22;20383;-67
2022/06/01 07:31:13;;;;;;;1.67;1.45;;;12.40;81.50;;;;;;6243684;22;20004;-72
2022/06/01 07:33:41;;;;;;;2.53;1.10;;;12.40;81.10;;;;;;6243428;22;20342;-69
2022/06/01 07:36:11;;;;;;;2.00;0.95;;;12.30;81.30;;;;;;6244117;22;20674;-66
2022/06/01 07:44:22;;;;;;;2.28;1.13;;;12.30;82.00;;;;;;6244185;23;20027;-69
2022/06/01 07:46:50;;;;;;;3.90;1.13;;;12.30;82.00;;;;;;6244081;22;20000;-65
2022/06/01 07:49:18;;;;;;;2.58;1.10;;;12.30;82.40;;;;;;6243200;22;20000;-69
2022/06/01 07:51:47;;;;;;;3.97;1.75;;;12.30;82.80;;;;;;6243923;22;20000;-65
2022/06/01 07:54:16;;;;;;;2.80;1.17;;;12.30;82.60;;;;;;6243463;23;20011;-70
2022/06/01 07:56:43;;;;;;;2.95;1.27;;;12.30;83.40;;;;;;6243664;22;20075;-67
2022/06/01 07:59:10;;;;;;;5.50;1.90;;;12.30;82.90;;;;;;6242984;22;20004;-68
2022/06/01 08:01:38;;;;;;;7.10;2.20;;;12.30;83.30;;;;;;6243202;22;20055;-66
2022/06/01 08:04:07;;;;;;;2.25;1.33;;;12.30;83.20;;;;;;6243011;22;20016;-67
2022/06/01 08:06:36;;;;;;;2.58;1.08;;;12.30;83.40;;;;;;6243526;22;20000;-68
2022/06/01 08:09:04;;;;;;;2.67;1.25;;;12.30;83.90;;;;;;6243583;22;20008;-66
2022/06/01 08:14:18;;;;;;;3.03;1.10;;;12.20;84.00;;;;;;6243582;23;20719;-67
2022/06/01 08:16:46;;;;;;;4.03;1.88;;;12.20;84.40;;;;;;6243527;22;19996;-70
2022/06/01 08:19:15;;;;;;;5.88;3.08;;;12.30;84.70;;;;;;6243330;22;20007;-65
2022/06/01 08:21:43;;;;;;;3.72;1.50;;;12.20;84.40;;;;;;6244347;22;20011;-68
2022/06/01 08:24:13;;;;;;;2.15;0.77;;;12.20;84.50;;;;;;6242345;22;20323;-65
2022/06/01 08:26:41;;;;;;;4.60;0.80;;;12.30;84.80;;;;;;6243455;22;20004;-66
2022/06/01 08:29:08;;;;;;;2.10;1.15;;;12.10;85.10;;;;;;6243409;22;20083;-65
2022/06/01 08:31:35;;;;;;;3.55;1.65;;;12.20;85.40;;;;;;6244028;22;20082;-68
2022/06/01 08:34:04;;;;;;;3.80;1.90;;;12.10;85.60;;;;;;6243495;22;20004;-66
2022/06/01 08:36:32;;;;;;;1.90;0.50;;;12.00;85.90;;;;;;6243886;22;20082;-69
2022/06/01 08:39:01;;;;;;;2.88;1.73;;;11.90;86.10;;;;;;6244055;22;20027;-65
2022/06/01 08:41:37;;;;;;;4.78;1.95;;;12.00;86.30;;;;;;6242323;23;20011;-66
2022/06/01 08:44:24;;;;;;;2.10;0.60;;;11.90;86.70;;;;;;6237908;23;20304;-67
2022/06/01 08:46:56;;;;;;;1.80;0.70;;;11.90;86.70;;;;;;6241980;22;20020;-66
2022/06/01 08:49:30;;;;;;;1.48;0.80;;;11.90;87.20;;;;;;6243925;22;20008;-66
2022/06/01 08:51:58;;;;;;;1.45;0.80;;;11.90;87.30;;;;;;6242100;23;20005;-66
2022/06/01 08:54:26;;;;;;;3.92;0.80;;;11.90;87.70;;;;;;6243362;22;20008;-66
2022/06/01 08:57:03;;;;;;;2.03;1.00;;;11.90;87.50;;;;;;6243519;22;20000;-68
2022/06/01 08:59:33;;;;;;;1.17;0.93;;;11.90;87.60;;;;;;6242946;22;20449;-68
2022/06/01 09:02:21;;;;;;;2.00;0.80;;;11.80;88.00;;;;;;6243263;22;20011;-67
2022/06/01 09:05:08;;;;;;;1.73;0.80;;;11.80;88.50;;;;;;6243163;22;20012;-67
2022/06/01 09:07:51;;;;;;;3.80;1.15;;;11.80;88.30;;;;;;6243355;22;20083;-66
2022/06/01 09:10:22;;;;;;;1.23;0.75;;;11.80;88.60;;;;;;6242721;22;20000;-67
2022/06/01 09:13:15;;;;;;;1.20;0.80;;;11.90;88.80;;;;;;6240490;22;20330;-66
2022/06/01 09:16:01;;;;;;;3.28;1.27;;;11.90;88.60;;;;;;6230796;23;20004;-65
2022/06/01 09:18:42;;;;;;;1.80;0.77;;;11.80;89.30;;;;;;6242971;22;20004;-66
2022/06/01 09:24:41;;;;;;;5.30;2.45;;;11.70;89.40;;;;;;6242925;23;20019;-68
2022/06/01 09:27:12;;;;;;;3.47;1.30;;;11.60;89.80;;;;;;6243120;22;20071;-67
2022/06/01 09:29:52;;;;;;;6.65;2.78;;;11.50;90.20;;;;;;6243601;22;20076;-66
2022/06/01 09:32:30;;;;;;;7.10;3.10;;;11.50;90.30;;;;;;6243183;22;20008;-67
2022/06/01 09:35:14;;;;;;;4.28;1.55;;;11.40;90.50;;;;;;6241866;22;20031;-67
2022/06/01 09:37:46;;;;;;;4.90;1.38;;;11.40;90.60;;;;;;6243389;22;20007;-67
2022/06/01 09:40:27;;;;;;;3.08;1.30;;;11.40;90.70;;;;;;6243403;22;20028;-67
2022/06/01 09:42:59;;;;;;;1.92;1.20;;;11.30;90.90;;;;;;6242476;22;20075;-67
2022/06/01 09:45:32;;;;;;;1.70;1.07;;;11.20;90.90;;;;;;6241071;22;20032;-69
2022/06/01 09:48:16;;;;;;;;;;;11.20;91.00;;;;;;6241699;22;20229;-66
2022/06/01 09:50:46;;;;;;;8.18;5.28;;;11.10;91.00;;;;;;6242138;23;19947;-66
2022/06/01 09:53:22;;;;;;;5.20;2.40;;;11.10;91.10;;;;;;6242717;22;20339;-66
2022/06/01 09:55:59;;;;;;;5.53;1.90;;;11.10;91.20;;;;;;6242300;22;20011;-68
2022/06/01 10:06:57;;;;;;;4.90;2.65;;;11.00;91.40;;;;;;6241425;23;20024;-67
2022/06/01 10:09:28;;;;;;;5.33;2.60;;;11.00;91.40;;;;;;6242616;22;20007;-65
2022/06/01 10:11:57;;;;;;;5.97;2.25;;;11.00;91.60;;;;;;6242353;22;20475;-65
2022/06/01 10:14:27;;;;;;;6.05;2.53;;;10.90;91.60;;;;;;6242506;22;20027;-66
2022/06/01 10:17:13;;;;;;;3.90;2.03;;;10.90;91.80;;;;;;6241824;22;20079;-72
2022/06/01 10:19:52;;;;;;;4.18;1.70;;;10.90;91.80;;;;;;6242300;22;20030;-67
2022/06/01 10:22:51;;;;;;;3.00;1.30;;;10.90;92.00;;;;;;6242323;22;20419;-65
2022/06/01 10:25:33;;;;;;;2.25;1.27;;;10.80;92.20;;;;;;6239990;23;20016;-65
2022/06/01 10:28:08;;;;;;;;;;;10.80;92.00;;;;;;6241999;22;20000;-65
2022/06/01 10:30:38;;;;;;;3.90;1.38;;;10.80;92.00;;;;;;6241478;22;19903;-66
2022/06/01 10:33:34;;;;;;;3.05;1.45;;;10.70;92.20;;;;;;6241019;22;20008;-66
2022/06/01 10:36:16;;;;;;;4.45;1.73;;;10.70;92.30;;;;;;6242831;22;20008;-67
2022/06/01 10:38:47;;;;;;;4.85;1.30;;;10.60;92.30;;;;;;6243445;22;20012;-71
2022/06/01 10:41:45;;;;;;;3.45;2.00;;;10.60;92.40;;;;;;6242339;23;20054;-66
2022/06/01 10:44:18;;;;;;;2.63;1.70;;;10.60;92.50;;;;;;6243615;22;20012;-65
2022/06/01 10:46:59;;;;;;;;;;;10.60;92.70;;;;;;6243806;22;20075;-65
2022/06/01 10:49:51;;;;;;;5.35;2.97;;;10.60;92.60;;;;;;6244051;22;19953;-66
2022/06/01 10:52:36;;;;;;;6.38;3.20;;;10.50;92.70;;;;;;6244880;22;19996;-65
2022/06/01 10:55:35;;;;;;;1.88;1.10;;;10.50;92.60;;;;;;6244204;23;20004;-66
2022/06/01 10:58:04;;;;;;;2.65;1.25;;;10.50;92.60;;;;;;6244212;22;20000;-67
2022/06/01 11:00:48;;;;;;;3.60;1.40;;;10.60;92.80;;;;;;6244276;22;20008;-65
2022/06/01 11:03:38;;;;;;;3.55;1.10;;;10.60;93.00;;;;;;6243764;22;20016;-66
2022/06/01 11:06:28;;;;;;;2.33;1.38;;;10.60;92.80;;;;;;6243512;22;20024;-66
2022/06/01 11:09:12;;;;;;;2.58;1.10;;;10.60;92.80;;;;;;6243539;23;20078;-68
2022/06/01 11:11:54;;;;;;;2.85;1.40;;;10.60;92.80;;;;;;6244751;22;20035;-66
2022/06/01 11:14:28;;;;;;;3.78;1.13;;;10.60;92.80;;;;;;6244298;22;20000;-67
2022/06/01 11:16:59;;;;;;;2.17;1.58;;;10.60;93.00;;;;;;6244624;22;20026;-67
2022/06/01 11:19:56;;;;;;;1.70;1.10;;;10.60;93.00;;;;;;6244745;22;20000;-67
2022/06/01 11:22:44;;;;;;;4.60;2.08;;;10.70;93.20;;;;;;6244716;22;20004;-66
2022/06/01 11:25:34;;;;;;;4.85;1.15;;;10.70;93.20;;;;;;6243984;22;20019;-67
2022/06/01 11:28:30;;;;;;;5.03;1.40;;;10.70;93.20;;;;;;6243996;22;20423;-68
2022/06/01 11:31:15;;;;;;;2.15;1.00;;;10.70;93.30;;;;;;6244928;22;20004;-68
2022/06/01 11:33:54;;;;;;;2.35;1.05;;;10.70;93.40;;;;;;6244777;22;20086;-67
2022/06/01 11:36:44;;;;;;;3.80;1.77;;;10.60;93.40;;;;;;6244100;22;20933;-67
2022/06/01 11:39:26;;;;;;;2.22;1.33;;;10.60;93.70;;;;;;6244263;22;20015;-67
2022/06/01 11:42:26;;;;;;;3.22;1.30;;;10.60;93.60;;;;;;6244448;22;20022;-65
2022/06/01 11:45:15;;;;;;;2.65;1.20;;;10.60;93.70;;;;;;6243316;22;20008;-67
2022/06/01 11:48:10;;;;;;;2.10;1.10;;;10.70;93.70;;;;;;6243917;22;20137;-66
2022/06/01 11:51:01;;;;;;;2.53;1.20;;;10.70;93.80;;;;;;6232993;23;20004;-69
2022/06/01 11:53:38;;;;;;;2.25;1.00;;;10.70;93.90;;;;;;6244514;22;20003;-65
2022/06/01 11:56:25;;;;;;;2.35;1.00;;;10.70;94.00;;;;;;6244259;22;20011;-66
2022/06/01 11:59:14;;;;;;;1.55;0.80;;;10.60;94.00;;;;;;6244371;22;20074;-68
2022/06/01 12:01:49;;;;;;;2.35;0.88;;;10.60;94.50;;;;;;6244342;22;20012;-66
2022/06/01 12:04:25;;;;;;;0.93;0.70;;;10.60;94.30;;;;;;6243669;22;20066;-67
2022/06/01 12:07:08;;;;;;;1.20;0.60;;;10.60;94.40;;;;;;6244166;23;20438;-66
2022/06/01 12:10:20;;;;;;;1.65;0.90;;;10.60;94.40;;;;;;6244367;22;20422;-66
2022/06/01 12:12:57;;;;;;;1.67;0.70;;;10.60;94.60;;;;;;6244399;22;20004;-66
2022/06/01 12:15:29;;;;;;;3.92;0.88;;;10.60;94.90;;;;;;6244331;22;20087;-67
2022/06/01 12:18:04;;;;;;;1.95;0.70;;;10.60;94.80;;;;;;6244128;22;20300;-67
2022/06/01 12:20:34;;;;;;;1.60;1.00;;;10.70;94.90;;;;;;6244388;22;20004;-67
2022/06/01 12:28:56;;;;;;;2.97;0.75;;;10.60;95.00;;;;;;6243285;23;20103;-67
2022/06/01 12:31:29;;;;;;;1.42;0.70;;;10.70;95.10;;;;;;6243208;22;20485;-67
2022/06/01 12:34:06;;;;;;;2.83;0.85;;;10.60;95.20;;;;;;6243837;22;20073;-66
2022/06/01 12:36:42;;;;;;;2.65;0.70;;;10.60;95.40;;;;;;6244622;22;20007;-68
2022/06/01 12:39:18;;;;;;;2.15;0.70;;;10.60;95.40;;;;;;6244215;22;20035;-68
2022/06/01 12:41:49;;;;;;;1.92;0.70;;;10.60;95.50;;;;;;6244058;22;20075;-67
2022/06/01 12:44:19;;;;;;;2.47;1.08;;;10.60;95.60;;;;;;6243594;22;20054;-67
2022/06/01 12:46:51;;;;;;;0.77;0.52;;;10.60;95.70;;;;;;6243915;22;20004;-68
2022/06/01 12:49:42;;;;;;;1.67;0.73;;;10.50;95.80;;;;;;6244387;22;20003;-66
2022/06/01 12:52:30;;;;;;;1.95;0.70;;;10.60;95.70;;;;;;6244140;22;20007;-66
2022/06/01 12:55:00;;;;;;;0.95;0.65;;;10.60;95.70;;;;;;6242046;23;20320;-67
2022/06/01 12:57:41;;;;;;;1.92;0.93;;;10.60;95.70;;;;;;6244166;22;20022;-66
2022/06/01 13:00:17;;;;;;;1.52;0.63;;;10.60;95.70;;;;;;6244052;22;20004;-68
2022/06/01 13:02:45;;;;;;;1.17;1.02;;;10.60;95.70;;;;;;6242122;23;20022;-69
2022/06/01 13:05:19;;;;;;;4.03;0.80;;;10.60;95.90;;;;;;6242754;22;20012;-67
2022/06/01 13:07:49;;;;;;;1.25;0.80;;;10.50;95.90;;;;;;6243894;22;19996;-66
2022/06/01 13:10:23;;;;;;;3.15;1.10;;;10.60;95.80;;;;;;6244037;22;20007;-66
2022/06/01 13:13:00;;;;;;;2.60;0.75;;;10.50;96.00;;;;;;6244118;22;20004;-66
2022/06/01 13:15:28;;;;;;;1.08;0.60;;;10.50;95.90;;;;;;6243517;22;20059;-67
2022/06/01 13:18:03;;;;;;;2.20;1.40;;;10.60;96.00;;;;;;6244252;22;20004;-66
2022/06/01 13:20:38;;;;;;;0.60;0.50;;;10.60;96.00;;;;;;6242982;23;20318;-66
2022/06/01 13:23:25;;;;;;;0.68;0.60;;;10.60;96.00;;;;;;6243386;22;20005;-66
2022/06/01 13:25:54;;;;;;;0.98;0.75;;;10.60;96.10;;;;;;6243683;22;20012;-68
2022/06/01 13:28:22;;;;;;;1.92;0.63;;;10.60;96.20;;;;;;6244525;22;19996;-65
2022/06/01 13:30:50;;;;;;;2.63;0.73;;;10.60;96.10;;;;;;6244501;22;20000;-65
2022/06/01 13:33:22;;;;;;;5.35;0.60;;;10.50;96.10;;;;;;6243436;22;20426;-65
2022/06/01 13:36:03;;;;;;;1.85;0.80;;;10.60;96.20;;;;;;6242913;22;20004;-65
2022/06/01 13:38:43;;;;;;;1.30;0.68;;;10.60;96.10;;;;;;6243501;22;19996;-68
2022/06/01 13:41:18;;;;;;;1.17;0.70;;;10.60;96.20;;;;;;6244442;22;20027;-67
2022/06/01 13:43:48;;;;;;;1.58;0.70;;;10.60;96.30;;;;;;6243312;22;20389;-70
2022/06/01 13:46:30;;;;;;;2.30;0.70;;;10.60;96.30;;;;;;6243228;22;20004;-66
2022/06/01 13:49:02;;;;;;;0.68;0.50;;;10.60;96.30;;;;;;6243649;22;20012;-72
2022/06/01 13:51:39;;;;;;;1.20;0.40;;;10.60;96.30;;;;;;6244809;22;19997;-66
2022/06/01 13:54:30;;;;;;;1.40;0.57;;;10.60;96.50;;;;;;6244978;22;20447;-65